sensor_id;sensor_type;location;lat;lon;timestamp;P1;durP1;ratioP1;P2;durP2;ratioP2
18997;SDS011;9632;51.018;4.284;2023-06-14T00:02:12;6.10;;;3.67;;
18997;SDS011;9632;51.018;4.284;2023-06-14T00:04:38;9.50;;;4.05;;
18997;SDS011;9632;51.018;4.284;2023-06-14T00:07:06;6.82;;;3.80;;
18997;SDS011;9632;51.018;4.284;2023-06-14T00:09:35;10.25;;;4.20;;
18997;SDS011;9632;51.018;4.284;2023-06-14T00:12:00;9.60;;;4.00;;
18997;SDS011;9632;51.018;4.284;2023-06-14T00:14:26;5.40;;;3.50;;
18997;SDS011;9632;51.018;4.284;2023-06-14T00:16:52;6.63;;;3.92;;
18997;SDS011;9632;51.018;4.284;2023-06-14T00:19:18;7.55;;;4.30;;
18997;SDS011;9632;51.018;4.284;2023-06-14T00:21:44;8.43;;;3.75;;
18997;SDS011;9632;51.018;4.284;2023-06-14T00:24:11;5.88;;;3.92;;
18997;SDS011;9632;51.018;4.284;2023-06-14T00:26:36;9.05;;;3.92;;
18997;SDS011;9632;51.018;4.284;2023-06-14T00:29:02;6.53;;;3.67;;
18997;SDS011;9632;51.018;4.284;2023-06-14T00:31:27;7.10;;;3.92;;
18997;SDS011;9632;51.018;4.284;2023-06-14T00:33:53;6.13;;;3.97;;
18997;SDS011;9632;51.018;4.284;2023-06-14T00:36:19;6.90;;;3.70;;
18997;SDS011;9632;51.018;4.284;2023-06-14T00:38:45;5.28;;;3.90;;
18997;SDS011;9632;51.018;4.284;2023-06-14T00:41:10;10.05;;;4.07;;
18997;SDS011;9632;51.018;4.284;2023-06-14T00:43:36;8.75;;;4.15;;
18997;SDS011;9632;51.018;4.284;2023-06-14T00:46:01;6.68;;;3.92;;
18997;SDS011;9632;51.018;4.284;2023-06-14T00:48:27;7.25;;;4.18;;
18997;SDS011;9632;51.018;4.284;2023-06-14T00:50:53;9.60;;;4.05;;
18997;SDS011;9632;51.018;4.284;2023-06-14T00:53:20;6.97;;;3.83;;
18997;SDS011;9632;51.018;4.284;2023-06-14T00:55:47;9.48;;;4.00;;
18997;SDS011;9632;51.018;4.284;2023-06-14T00:58:13;6.97;;;3.95;;
18997;SDS011;9632;51.018;4.284;2023-06-14T01:00:40;7.03;;;4.38;;
18997;SDS011;9632;51.018;4.284;2023-06-14T01:03:05;7.40;;;3.70;;
18997;SDS011;9632;51.018;4.284;2023-06-14T01:05:31;6.40;;;4.30;;
18997;SDS011;9632;51.018;4.284;2023-06-14T01:10:50;7.28;;;4.05;;
18997;SDS011;9632;51.018;4.284;2023-06-14T01:13:40;5.60;;;3.88;;
18997;SDS011;9632;51.018;4.284;2023-06-14T01:16:10;7.20;;;4.03;;
18997;SDS011;9632;51.018;4.284;2023-06-14T01:18:36;6.50;;;3.92;;
18997;SDS011;9632;51.018;4.284;2023-06-14T01:21:01;5.60;;;4.00;;
18997;SDS011;9632;51.018;4.284;2023-06-14T01:23:30;6.13;;;4.07;;
18997;SDS011;9632;51.018;4.284;2023-06-14T01:25:58;8.05;;;4.13;;
18997;SDS011;9632;51.018;4.284;2023-06-14T01:28:24;5.18;;;3.88;;
18997;SDS011;9632;51.018;4.284;2023-06-14T01:30:52;10.32;;;4.85;;
18997;SDS011;9632;51.018;4.284;2023-06-14T01:33:23;10.15;;;4.70;;
18997;SDS011;9632;51.018;4.284;2023-06-14T01:35:52;6.97;;;4.13;;
18997;SDS011;9632;51.018;4.284;2023-06-14T01:38:23;6.72;;;4.63;;
18997;SDS011;9632;51.018;4.284;2023-06-14T01:40:54;8.70;;;4.68;;
18997;SDS011;9632;51.018;4.284;2023-06-14T01:43:21;7.82;;;4.28;;
18997;SDS011;9632;51.018;4.284;2023-06-14T01:45:48;9.10;;;4.55;;
18997;SDS011;9632;51.018;4.284;2023-06-14T01:48:15;7.65;;;4.03;;
18997;SDS011;9632;51.018;4.284;2023-06-14T01:50:42;6.03;;;4.22;;
18997;SDS011;9632;51.018;4.284;2023-06-14T01:56:29;6.70;;;4.35;;
18997;SDS011;9632;51.018;4.284;2023-06-14T01:58:55;6.78;;;4.03;;
18997;SDS011;9632;51.018;4.284;2023-06-14T02:08:33;6.85;;;4.68;;
18997;SDS011;9632;51.018;4.284;2023-06-14T02:24:26;11.32;;;5.72;;
18997;SDS011;9632;51.018;4.284;2023-06-14T02:26:51;9.75;;;4.60;;
18997;SDS011;9632;51.018;4.284;2023-06-14T02:29:17;11.27;;;5.10;;
18997;SDS011;9632;51.018;4.284;2023-06-14T02:31:43;8.75;;;4.53;;
18997;SDS011;9632;51.018;4.284;2023-06-14T02:34:08;7.28;;;4.47;;
18997;SDS011;9632;51.018;4.284;2023-06-14T02:36:34;5.75;;;3.97;;
18997;SDS011;9632;51.018;4.284;2023-06-14T02:39:07;7.47;;;4.50;;
18997;SDS011;9632;51.018;4.284;2023-06-14T02:41:34;10.13;;;4.88;;
18997;SDS011;9632;51.018;4.284;2023-06-14T02:44:00;8.60;;;4.63;;
18997;SDS011;9632;51.018;4.284;2023-06-14T02:46:25;7.38;;;4.30;;
18997;SDS011;9632;51.018;4.284;2023-06-14T02:48:51;7.38;;;4.75;;
18997;SDS011;9632;51.018;4.284;2023-06-14T02:51:17;8.05;;;4.32;;
18997;SDS011;9632;51.018;4.284;2023-06-14T02:53:42;5.93;;;4.18;;
18997;SDS011;9632;51.018;4.284;2023-06-14T02:56:08;7.05;;;4.55;;
18997;SDS011;9632;51.018;4.284;2023-06-14T02:58:36;5.38;;;4.05;;
18997;SDS011;9632;51.018;4.284;2023-06-14T03:01:02;6.53;;;4.35;;
18997;SDS011;9632;51.018;4.284;2023-06-14T03:03:28;7.22;;;4.18;;
18997;SDS011;9632;51.018;4.284;2023-06-14T03:05:53;6.55;;;4.20;;
18997;SDS011;9632;51.018;4.284;2023-06-14T03:08:19;7.28;;;4.43;;
18997;SDS011;9632;51.018;4.284;2023-06-14T03:10:45;7.13;;;4.53;;
18997;SDS011;9632;51.018;4.284;2023-06-14T03:13:12;7.03;;;3.90;;
18997;SDS011;9632;51.018;4.284;2023-06-14T03:15:38;7.15;;;4.30;;
18997;SDS011;9632;51.018;4.284;2023-06-14T03:18:07;6.88;;;4.50;;
18997;SDS011;9632;51.018;4.284;2023-06-14T03:20:34;8.40;;;5.00;;
18997;SDS011;9632;51.018;4.284;2023-06-14T03:23:04;6.25;;;4.40;;
18997;SDS011;9632;51.018;4.284;2023-06-14T03:25:30;6.80;;;3.90;;
18997;SDS011;9632;51.018;4.284;2023-06-14T03:27:58;7.38;;;4.38;;
18997;SDS011;9632;51.018;4.284;2023-06-14T03:30:23;9.50;;;4.32;;
18997;SDS011;9632;51.018;4.284;2023-06-14T03:32:52;5.70;;;4.03;;
18997;SDS011;9632;51.018;4.284;2023-06-14T03:35:20;10.23;;;4.40;;
18997;SDS011;9632;51.018;4.284;2023-06-14T03:37:46;6.65;;;4.10;;
18997;SDS011;9632;51.018;4.284;2023-06-14T03:40:12;7.35;;;4.38;;
18997;SDS011;9632;51.018;4.284;2023-06-14T03:42:41;8.73;;;4.28;;
18997;SDS011;9632;51.018;4.284;2023-06-14T03:45:07;7.55;;;4.30;;
18997;SDS011;9632;51.018;4.284;2023-06-14T03:47:33;7.22;;;3.90;;
18997;SDS011;9632;51.018;4.284;2023-06-14T03:49:59;6.60;;;3.97;;
18997;SDS011;9632;51.018;4.284;2023-06-14T03:52:25;8.25;;;3.90;;
18997;SDS011;9632;51.018;4.284;2023-06-14T03:54:51;9.30;;;3.92;;
18997;SDS011;9632;51.018;4.284;2023-06-14T03:57:17;13.55;;;4.25;;
18997;SDS011;9632;51.018;4.284;2023-06-14T03:59:42;8.95;;;4.05;;
18997;SDS011;9632;51.018;4.284;2023-06-14T04:02:08;8.02;;;4.40;;
18997;SDS011;9632;51.018;4.284;2023-06-14T04:04:40;7.70;;;4.10;;
18997;SDS011;9632;51.018;4.284;2023-06-14T04:07:09;8.70;;;4.00;;
18997;SDS011;9632;51.018;4.284;2023-06-14T04:09:36;10.00;;;4.63;;
18997;SDS011;9632;51.018;4.284;2023-06-14T04:12:03;9.00;;;4.30;;
18997;SDS011;9632;51.018;4.284;2023-06-14T04:14:29;8.88;;;3.95;;
18997;SDS011;9632;51.018;4.284;2023-06-14T04:16:55;7.00;;;3.70;;
18997;SDS011;9632;51.018;4.284;2023-06-14T04:19:21;7.90;;;3.80;;
18997;SDS011;9632;51.018;4.284;2023-06-14T04:21:47;5.15;;;3.55;;
18997;SDS011;9632;51.018;4.284;2023-06-14T04:24:12;6.75;;;3.80;;
18997;SDS011;9632;51.018;4.284;2023-06-14T04:26:39;7.68;;;3.65;;
18997;SDS011;9632;51.018;4.284;2023-06-14T04:29:06;9.23;;;4.18;;
18997;SDS011;9632;51.018;4.284;2023-06-14T04:31:31;10.60;;;3.90;;
18997;SDS011;9632;51.018;4.284;2023-06-14T04:34:02;7.20;;;3.97;;
18997;SDS011;9632;51.018;4.284;2023-06-14T04:36:31;8.60;;;4.60;;
18997;SDS011;9632;51.018;4.284;2023-06-14T04:39:02;8.75;;;4.13;;
18997;SDS011;9632;51.018;4.284;2023-06-14T04:41:29;9.73;;;4.70;;
18997;SDS011;9632;51.018;4.284;2023-06-14T04:43:55;12.82;;;4.50;;
18997;SDS011;9632;51.018;4.284;2023-06-14T04:46:24;8.35;;;4.55;;
18997;SDS011;9632;51.018;4.284;2023-06-14T04:48:50;9.98;;;4.40;;
18997;SDS011;9632;51.018;4.284;2023-06-14T04:51:15;9.98;;;4.60;;
18997;SDS011;9632;51.018;4.284;2023-06-14T04:53:41;11.32;;;5.00;;
18997;SDS011;9632;51.018;4.284;2023-06-14T04:56:08;10.68;;;4.72;;
18997;SDS011;9632;51.018;4.284;2023-06-14T04:58:35;7.45;;;4.50;;
18997;SDS011;9632;51.018;4.284;2023-06-14T05:01:00;9.93;;;3.97;;
18997;SDS011;9632;51.018;4.284;2023-06-14T05:03:27;11.70;;;4.22;;
18997;SDS011;9632;51.018;4.284;2023-06-14T05:05:53;9.57;;;4.55;;
18997;SDS011;9632;51.018;4.284;2023-06-14T05:08:20;9.93;;;4.28;;
18997;SDS011;9632;51.018;4.284;2023-06-14T05:10:48;8.27;;;4.20;;
18997;SDS011;9632;51.018;4.284;2023-06-14T05:13:14;11.55;;;4.80;;
18997;SDS011;9632;51.018;4.284;2023-06-14T05:15:40;12.82;;;4.43;;
18997;SDS011;9632;51.018;4.284;2023-06-14T05:18:06;12.07;;;5.32;;
18997;SDS011;9632;51.018;4.284;2023-06-14T05:20:34;9.40;;;4.85;;
18997;SDS011;9632;51.018;4.284;2023-06-14T05:23:02;10.75;;;4.32;;
18997;SDS011;9632;51.018;4.284;2023-06-14T05:25:27;10.05;;;4.85;;
18997;SDS011;9632;51.018;4.284;2023-06-14T05:27:53;12.32;;;5.13;;
18997;SDS011;9632;51.018;4.284;2023-06-14T05:30:19;9.32;;;4.72;;
18997;SDS011;9632;51.018;4.284;2023-06-14T05:32:45;11.65;;;5.00;;
18997;SDS011;9632;51.018;4.284;2023-06-14T05:35:11;7.80;;;4.53;;
18997;SDS011;9632;51.018;4.284;2023-06-14T05:37:36;11.13;;;5.65;;
18997;SDS011;9632;51.018;4.284;2023-06-14T05:40:03;11.73;;;5.50;;
18997;SDS011;9632;51.018;4.284;2023-06-14T05:42:32;10.77;;;5.28;;
18997;SDS011;9632;51.018;4.284;2023-06-14T05:44:58;12.38;;;5.53;;
18997;SDS011;9632;51.018;4.284;2023-06-14T05:47:23;15.63;;;5.72;;
18997;SDS011;9632;51.018;4.284;2023-06-14T05:49:50;13.07;;;5.47;;
18997;SDS011;9632;51.018;4.284;2023-06-14T05:52:16;15.48;;;5.80;;
18997;SDS011;9632;51.018;4.284;2023-06-14T05:54:41;12.20;;;6.00;;
18997;SDS011;9632;51.018;4.284;2023-06-14T05:57:07;10.55;;;5.50;;
18997;SDS011;9632;51.018;4.284;2023-06-14T05:59:33;15.85;;;5.10;;
18997;SDS011;9632;51.018;4.284;2023-06-14T06:01:59;10.90;;;5.38;;
18997;SDS011;9632;51.018;4.284;2023-06-14T06:04:24;13.77;;;5.57;;
18997;SDS011;9632;51.018;4.284;2023-06-14T06:06:50;12.93;;;5.82;;
18997;SDS011;9632;51.018;4.284;2023-06-14T06:09:16;12.63;;;5.15;;
18997;SDS011;9632;51.018;4.284;2023-06-14T06:11:41;10.23;;;5.68;;
18997;SDS011;9632;51.018;4.284;2023-06-14T06:14:07;12.73;;;5.40;;
18997;SDS011;9632;51.018;4.284;2023-06-14T06:16:33;12.30;;;6.00;;
18997;SDS011;9632;51.018;4.284;2023-06-14T06:18:58;13.38;;;5.55;;
18997;SDS011;9632;51.018;4.284;2023-06-14T06:21:25;13.77;;;5.53;;
18997;SDS011;9632;51.018;4.284;2023-06-14T06:23:51;13.10;;;5.38;;
18997;SDS011;9632;51.018;4.284;2023-06-14T06:26:16;11.90;;;5.80;;
18997;SDS011;9632;51.018;4.284;2023-06-14T06:28:42;15.20;;;6.20;;
18997;SDS011;9632;51.018;4.284;2023-06-14T06:31:08;10.20;;;5.60;;
18997;SDS011;9632;51.018;4.284;2023-06-14T06:33:33;12.85;;;6.28;;
18997;SDS011;9632;51.018;4.284;2023-06-14T06:36:00;18.88;;;6.70;;
18997;SDS011;9632;51.018;4.284;2023-06-14T06:38:25;8.57;;;5.00;;
18997;SDS011;9632;51.018;4.284;2023-06-14T06:40:51;15.32;;;6.80;;
18997;SDS011;9632;51.018;4.284;2023-06-14T06:43:19;15.82;;;5.95;;
18997;SDS011;9632;51.018;4.284;2023-06-14T06:45:44;25.45;;;6.75;;
18997;SDS011;9632;51.018;4.284;2023-06-14T06:48:10;8.70;;;5.50;;
18997;SDS011;9632;51.018;4.284;2023-06-14T06:50:36;11.45;;;5.25;;
18997;SDS011;9632;51.018;4.284;2023-06-14T06:53:01;10.18;;;5.32;;
18997;SDS011;9632;51.018;4.284;2023-06-14T06:55:27;11.55;;;5.20;;
18997;SDS011;9632;51.018;4.284;2023-06-14T06:57:53;10.50;;;5.38;;
18997;SDS011;9632;51.018;4.284;2023-06-14T07:00:19;12.15;;;5.68;;
18997;SDS011;9632;51.018;4.284;2023-06-14T07:02:46;12.88;;;5.50;;
18997;SDS011;9632;51.018;4.284;2023-06-14T07:05:11;11.68;;;5.63;;
18997;SDS011;9632;51.018;4.284;2023-06-14T07:07:37;13.88;;;5.90;;
18997;SDS011;9632;51.018;4.284;2023-06-14T07:10:03;14.32;;;6.07;;
18997;SDS011;9632;51.018;4.284;2023-06-14T07:12:33;11.05;;;5.03;;
18997;SDS011;9632;51.018;4.284;2023-06-14T07:15:04;11.73;;;5.18;;
18997;SDS011;9632;51.018;4.284;2023-06-14T07:17:31;13.77;;;5.38;;
18997;SDS011;9632;51.018;4.284;2023-06-14T07:19:57;16.60;;;5.18;;
18997;SDS011;9632;51.018;4.284;2023-06-14T07:22:23;11.50;;;5.00;;
18997;SDS011;9632;51.018;4.284;2023-06-14T07:24:48;8.80;;;5.25;;
18997;SDS011;9632;51.018;4.284;2023-06-14T07:27:14;13.18;;;5.45;;
18997;SDS011;9632;51.018;4.284;2023-06-14T07:29:40;13.60;;;4.95;;
18997;SDS011;9632;51.018;4.284;2023-06-14T07:32:06;13.60;;;5.97;;
18997;SDS011;9632;51.018;4.284;2023-06-14T07:34:31;12.35;;;5.82;;
18997;SDS011;9632;51.018;4.284;2023-06-14T07:36:57;10.25;;;4.47;;
18997;SDS011;9632;51.018;4.284;2023-06-14T07:39:23;13.00;;;4.85;;
18997;SDS011;9632;51.018;4.284;2023-06-14T07:41:48;23.20;;;5.43;;
18997;SDS011;9632;51.018;4.284;2023-06-14T07:44:14;10.60;;;5.65;;
18997;SDS011;9632;51.018;4.284;2023-06-14T07:46:40;8.73;;;5.30;;
18997;SDS011;9632;51.018;4.284;2023-06-14T07:49:06;22.98;;;5.68;;
18997;SDS011;9632;51.018;4.284;2023-06-14T07:51:32;16.95;;;5.18;;
18997;SDS011;9632;51.018;4.284;2023-06-14T07:53:59;13.85;;;5.07;;
18997;SDS011;9632;51.018;4.284;2023-06-14T07:56:27;11.88;;;5.15;;
18997;SDS011;9632;51.018;4.284;2023-06-14T07:58:52;10.50;;;4.97;;
18997;SDS011;9632;51.018;4.284;2023-06-14T08:01:18;10.50;;;4.72;;
18997;SDS011;9632;51.018;4.284;2023-06-14T08:03:45;12.23;;;5.63;;
18997;SDS011;9632;51.018;4.284;2023-06-14T08:06:10;97.07;;;10.38;;
18997;SDS011;9632;51.018;4.284;2023-06-14T08:08:36;13.70;;;4.97;;
18997;SDS011;9632;51.018;4.284;2023-06-14T08:11:02;11.75;;;4.82;;
18997;SDS011;9632;51.018;4.284;2023-06-14T08:13:28;11.13;;;4.75;;
18997;SDS011;9632;51.018;4.284;2023-06-14T08:15:53;13.95;;;5.15;;
18997;SDS011;9632;51.018;4.284;2023-06-14T08:18:20;9.90;;;4.57;;
18997;SDS011;9632;51.018;4.284;2023-06-14T08:20:46;9.30;;;4.55;;
18997;SDS011;9632;51.018;4.284;2023-06-14T08:23:11;10.70;;;5.00;;
18997;SDS011;9632;51.018;4.284;2023-06-14T08:25:38;11.65;;;5.05;;
18997;SDS011;9632;51.018;4.284;2023-06-14T08:28:03;10.13;;;4.85;;
18997;SDS011;9632;51.018;4.284;2023-06-14T08:30:29;24.33;;;6.60;;
18997;SDS011;9632;51.018;4.284;2023-06-14T08:32:55;9.18;;;4.72;;
18997;SDS011;9632;51.018;4.284;2023-06-14T08:35:21;12.52;;;5.15;;
18997;SDS011;9632;51.018;4.284;2023-06-14T08:37:47;13.88;;;5.45;;
18997;SDS011;9632;51.018;4.284;2023-06-14T08:42:55;11.85;;;4.38;;
18997;SDS011;9632;51.018;4.284;2023-06-14T08:45:21;22.85;;;5.35;;
18997;SDS011;9632;51.018;4.284;2023-06-14T08:47:48;17.02;;;4.72;;
18997;SDS011;9632;51.018;4.284;2023-06-14T08:50:22;14.48;;;5.18;;
18997;SDS011;9632;51.018;4.284;2023-06-14T08:52:55;14.57;;;5.18;;
18997;SDS011;9632;51.018;4.284;2023-06-14T08:55:25;16.75;;;5.20;;
18997;SDS011;9632;51.018;4.284;2023-06-14T08:57:53;15.32;;;5.30;;
18997;SDS011;9632;51.018;4.284;2023-06-14T09:00:20;15.27;;;5.20;;
18997;SDS011;9632;51.018;4.284;2023-06-14T09:02:47;12.77;;;4.93;;
18997;SDS011;9632;51.018;4.284;2023-06-14T09:05:13;14.73;;;4.47;;
18997;SDS011;9632;51.018;4.284;2023-06-14T09:07:42;10.82;;;4.70;;
18997;SDS011;9632;51.018;4.284;2023-06-14T09:10:12;14.05;;;5.25;;
18997;SDS011;9632;51.018;4.284;2023-06-14T09:12:38;15.63;;;5.50;;
18997;SDS011;9632;51.018;4.284;2023-06-14T09:15:05;12.50;;;4.93;;
18997;SDS011;9632;51.018;4.284;2023-06-14T09:17:38;14.73;;;5.65;;
18997;SDS011;9632;51.018;4.284;2023-06-14T09:20:04;16.05;;;5.60;;
18997;SDS011;9632;51.018;4.284;2023-06-14T09:22:33;12.77;;;5.22;;
18997;SDS011;9632;51.018;4.284;2023-06-14T09:24:59;14.48;;;5.28;;
18997;SDS011;9632;51.018;4.284;2023-06-14T09:27:25;9.98;;;5.03;;
18997;SDS011;9632;51.018;4.284;2023-06-14T09:29:52;12.10;;;5.15;;
18997;SDS011;9632;51.018;4.284;2023-06-14T09:32:18;9.00;;;4.72;;
18997;SDS011;9632;51.018;4.284;2023-06-14T09:34:44;16.00;;;5.25;;
18997;SDS011;9632;51.018;4.284;2023-06-14T09:37:10;18.10;;;5.00;;
18997;SDS011;9632;51.018;4.284;2023-06-14T09:39:48;14.02;;;5.15;;
18997;SDS011;9632;51.018;4.284;2023-06-14T09:42:18;14.82;;;5.05;;
18997;SDS011;9632;51.018;4.284;2023-06-14T09:44:46;13.02;;;5.13;;
18997;SDS011;9632;51.018;4.284;2023-06-14T09:47:14;16.42;;;5.40;;
18997;SDS011;9632;51.018;4.284;2023-06-14T09:49:40;10.65;;;5.15;;
18997;SDS011;9632;51.018;4.284;2023-06-14T09:52:09;13.50;;;5.50;;
18997;SDS011;9632;51.018;4.284;2023-06-14T09:54:41;11.02;;;4.40;;
18997;SDS011;9632;51.018;4.284;2023-06-14T09:57:11;12.73;;;5.15;;
18997;SDS011;9632;51.018;4.284;2023-06-14T09:59:37;13.35;;;5.13;;
18997;SDS011;9632;51.018;4.284;2023-06-14T10:02:22;10.65;;;4.68;;
18997;SDS011;9632;51.018;4.284;2023-06-14T10:08:17;13.60;;;4.53;;
18997;SDS011;9632;51.018;4.284;2023-06-14T10:10:28;13.90;;;4.13;;
18997;SDS011;9632;51.018;4.284;2023-06-14T10:12:53;8.95;;;4.20;;
18997;SDS011;9632;51.018;4.284;2023-06-14T10:15:31;8.07;;;4.50;;
18997;SDS011;9632;51.018;4.284;2023-06-14T10:20:53;8.48;;;3.83;;
18997;SDS011;9632;51.018;4.284;2023-06-14T10:23:25;13.23;;;3.80;;
18997;SDS011;9632;51.018;4.284;2023-06-14T10:25:54;6.05;;;3.60;;
18997;SDS011;9632;51.018;4.284;2023-06-14T10:28:21;9.30;;;3.83;;
18997;SDS011;9632;51.018;4.284;2023-06-14T10:33:29;7.68;;;3.80;;
18997;SDS011;9632;51.018;4.284;2023-06-14T10:36:08;9.23;;;3.90;;
18997;SDS011;9632;51.018;4.284;2023-06-14T10:38:34;17.75;;;3.97;;
18997;SDS011;9632;51.018;4.284;2023-06-14T10:41:02;12.63;;;3.58;;
18997;SDS011;9632;51.018;4.284;2023-06-14T10:43:29;11.75;;;3.72;;
18997;SDS011;9632;51.018;4.284;2023-06-14T10:48:48;15.60;;;3.80;;
18997;SDS011;9632;51.018;4.284;2023-06-14T10:51:20;8.50;;;3.53;;
18997;SDS011;9632;51.018;4.284;2023-06-14T10:53:49;10.48;;;3.55;;
18997;SDS011;9632;51.018;4.284;2023-06-14T10:58:59;8.43;;;3.53;;
18997;SDS011;9632;51.018;4.284;2023-06-14T11:01:51;7.25;;;3.35;;
18997;SDS011;9632;51.018;4.284;2023-06-14T11:04:23;10.40;;;3.22;;
18997;SDS011;9632;51.018;4.284;2023-06-14T11:10:22;9.63;;;3.10;;
18997;SDS011;9632;51.018;4.284;2023-06-14T11:13:02;5.97;;;2.70;;
18997;SDS011;9632;51.018;4.284;2023-06-14T11:15:29;11.85;;;3.28;;
18997;SDS011;9632;51.018;4.284;2023-06-14T11:17:55;12.38;;;3.33;;
18997;SDS011;9632;51.018;4.284;2023-06-14T11:20:24;7.20;;;3.30;;
18997;SDS011;9632;51.018;4.284;2023-06-14T11:22:51;58.90;;;6.60;;
18997;SDS011;9632;51.018;4.284;2023-06-14T11:25:17;9.38;;;2.97;;
18997;SDS011;9632;51.018;4.284;2023-06-14T11:27:43;10.82;;;3.35;;
18997;SDS011;9632;51.018;4.284;2023-06-14T11:30:10;8.30;;;3.25;;
18997;SDS011;9632;51.018;4.284;2023-06-14T11:32:39;7.03;;;3.20;;
18997;SDS011;9632;51.018;4.284;2023-06-14T11:35:05;11.70;;;3.28;;
18997;SDS011;9632;51.018;4.284;2023-06-14T11:37:32;39.13;;;5.20;;
18997;SDS011;9632;51.018;4.284;2023-06-14T11:39:58;7.78;;;3.28;;
18997;SDS011;9632;51.018;4.284;2023-06-14T11:42:27;9.60;;;3.28;;
18997;SDS011;9632;51.018;4.284;2023-06-14T11:44:54;12.05;;;3.55;;
18997;SDS011;9632;51.018;4.284;2023-06-14T11:47:20;9.20;;;3.25;;
18997;SDS011;9632;51.018;4.284;2023-06-14T11:49:46;5.82;;;3.30;;
18997;SDS011;9632;51.018;4.284;2023-06-14T11:52:12;7.43;;;3.30;;
18997;SDS011;9632;51.018;4.284;2023-06-14T11:54:38;10.40;;;3.35;;
18997;SDS011;9632;51.018;4.284;2023-06-14T11:57:07;4.43;;;3.17;;
18997;SDS011;9632;51.018;4.284;2023-06-14T11:59:39;9.00;;;3.40;;
18997;SDS011;9632;51.018;4.284;2023-06-14T12:02:05;6.63;;;3.17;;
18997;SDS011;9632;51.018;4.284;2023-06-14T12:04:32;11.52;;;3.65;;
18997;SDS011;9632;51.018;4.284;2023-06-14T12:07:08;10.02;;;3.38;;
18997;SDS011;9632;51.018;4.284;2023-06-14T12:12:22;6.60;;;3.25;;
18997;SDS011;9632;51.018;4.284;2023-06-14T12:14:51;7.50;;;3.05;;
18997;SDS011;9632;51.018;4.284;2023-06-14T12:17:18;12.07;;;3.17;;
18997;SDS011;9632;51.018;4.284;2023-06-14T12:19:45;15.75;;;3.10;;
18997;SDS011;9632;51.018;4.284;2023-06-14T12:22:11;11.13;;;3.30;;
18997;SDS011;9632;51.018;4.284;2023-06-14T12:24:42;14.02;;;3.33;;
18997;SDS011;9632;51.018;4.284;2023-06-14T12:27:09;8.70;;;3.10;;
18997;SDS011;9632;51.018;4.284;2023-06-14T12:29:36;13.23;;;3.42;;
18997;SDS011;9632;51.018;4.284;2023-06-14T12:32:02;17.35;;;3.15;;
18997;SDS011;9632;51.018;4.284;2023-06-14T12:34:30;11.80;;;2.75;;
18997;SDS011;9632;51.018;4.284;2023-06-14T12:36:56;11.27;;;2.80;;
18997;SDS011;9632;51.018;4.284;2023-06-14T12:39:22;7.55;;;3.25;;
18997;SDS011;9632;51.018;4.284;2023-06-14T12:41:48;18.10;;;3.72;;
18997;SDS011;9632;51.018;4.284;2023-06-14T12:44:14;6.05;;;2.70;;
18997;SDS011;9632;51.018;4.284;2023-06-14T12:46:41;9.73;;;2.85;;
18997;SDS011;9632;51.018;4.284;2023-06-14T12:49:08;7.05;;;3.00;;
18997;SDS011;9632;51.018;4.284;2023-06-14T12:51:37;7.55;;;2.58;;
18997;SDS011;9632;51.018;4.284;2023-06-14T12:54:03;10.27;;;2.95;;
18997;SDS011;9632;51.018;4.284;2023-06-14T12:56:29;10.98;;;2.95;;
18997;SDS011;9632;51.018;4.284;2023-06-14T12:58:55;8.75;;;3.00;;
18997;SDS011;9632;51.018;4.284;2023-06-14T13:01:21;14.95;;;3.40;;
18997;SDS011;9632;51.018;4.284;2023-06-14T13:03:46;7.18;;;2.95;;
18997;SDS011;9632;51.018;4.284;2023-06-14T13:06:12;8.05;;;2.70;;
18997;SDS011;9632;51.018;4.284;2023-06-14T13:08:38;6.40;;;2.65;;
18997;SDS011;9632;51.018;4.284;2023-06-14T13:11:04;10.75;;;3.45;;
18997;SDS011;9632;51.018;4.284;2023-06-14T13:13:30;7.55;;;2.90;;
18997;SDS011;9632;51.018;4.284;2023-06-14T13:15:55;6.53;;;2.45;;
18997;SDS011;9632;51.018;4.284;2023-06-14T13:18:21;5.97;;;2.78;;
18997;SDS011;9632;51.018;4.284;2023-06-14T13:20:47;6.95;;;2.97;;
18997;SDS011;9632;51.018;4.284;2023-06-14T13:23:13;10.25;;;2.90;;
18997;SDS011;9632;51.018;4.284;2023-06-14T13:25:40;4.85;;;2.65;;
18997;SDS011;9632;51.018;4.284;2023-06-14T13:28:06;9.48;;;2.97;;
18997;SDS011;9632;51.018;4.284;2023-06-14T13:30:32;8.35;;;2.53;;
18997;SDS011;9632;51.018;4.284;2023-06-14T13:32:58;9.52;;;2.92;;
18997;SDS011;9632;51.018;4.284;2023-06-14T13:35:24;6.00;;;2.70;;
18997;SDS011;9632;51.018;4.284;2023-06-14T13:37:50;9.05;;;2.47;;
18997;SDS011;9632;51.018;4.284;2023-06-14T13:40:16;6.78;;;2.40;;
18997;SDS011;9632;51.018;4.284;2023-06-14T13:42:42;8.15;;;2.63;;
18997;SDS011;9632;51.018;4.284;2023-06-14T13:45:08;15.55;;;2.15;;
18997;SDS011;9632;51.018;4.284;2023-06-14T13:47:36;4.25;;;2.50;;
18997;SDS011;9632;51.018;4.284;2023-06-14T13:50:02;8.95;;;2.33;;
18997;SDS011;9632;51.018;4.284;2023-06-14T13:52:28;6.93;;;2.17;;
18997;SDS011;9632;51.018;4.284;2023-06-14T13:54:54;5.00;;;2.20;;
18997;SDS011;9632;51.018;4.284;2023-06-14T13:57:19;8.30;;;2.10;;
18997;SDS011;9632;51.018;4.284;2023-06-14T13:59:45;7.07;;;1.92;;
18997;SDS011;9632;51.018;4.284;2023-06-14T14:02:11;5.45;;;1.88;;
18997;SDS011;9632;51.018;4.284;2023-06-14T14:04:40;6.10;;;1.95;;
18997;SDS011;9632;51.018;4.284;2023-06-14T14:07:07;5.25;;;1.70;;
18997;SDS011;9632;51.018;4.284;2023-06-14T14:09:33;10.70;;;1.70;;
18997;SDS011;9632;51.018;4.284;2023-06-14T14:12:00;10.45;;;1.75;;
18997;SDS011;9632;51.018;4.284;2023-06-14T14:14:27;4.85;;;1.73;;
18997;SDS011;9632;51.018;4.284;2023-06-14T14:16:53;1.98;;;1.25;;
18997;SDS011;9632;51.018;4.284;2023-06-14T14:19:20;2.80;;;1.20;;
18997;SDS011;9632;51.018;4.284;2023-06-14T14:21:46;7.70;;;1.40;;
18997;SDS011;9632;51.018;4.284;2023-06-14T14:24:12;6.47;;;1.50;;
18997;SDS011;9632;51.018;4.284;2023-06-14T14:26:38;6.00;;;1.13;;
18997;SDS011;9632;51.018;4.284;2023-06-14T14:29:04;5.40;;;1.27;;
18997;SDS011;9632;51.018;4.284;2023-06-14T14:31:30;6.22;;;1.30;;
18997;SDS011;9632;51.018;4.284;2023-06-14T14:33:56;8.10;;;1.30;;
18997;SDS011;9632;51.018;4.284;2023-06-14T14:36:22;6.75;;;1.25;;
18997;SDS011;9632;51.018;4.284;2023-06-14T14:38:47;5.25;;;1.10;;
18997;SDS011;9632;51.018;4.284;2023-06-14T14:41:13;6.20;;;1.38;;
18997;SDS011;9632;51.018;4.284;2023-06-14T14:43:39;6.10;;;1.35;;
18997;SDS011;9632;51.018;4.284;2023-06-14T14:46:05;4.32;;;1.30;;
18997;SDS011;9632;51.018;4.284;2023-06-14T14:48:30;6.53;;;1.48;;
18997;SDS011;9632;51.018;4.284;2023-06-14T14:50:56;10.23;;;1.20;;
18997;SDS011;9632;51.018;4.284;2023-06-14T14:53:22;6.68;;;1.50;;
18997;SDS011;9632;51.018;4.284;2023-06-14T14:55:48;4.47;;;1.45;;
18997;SDS011;9632;51.018;4.284;2023-06-14T14:58:14;4.68;;;1.23;;
18997;SDS011;9632;51.018;4.284;2023-06-14T15:00:43;7.30;;;1.20;;
18997;SDS011;9632;51.018;4.284;2023-06-14T15:03:10;6.07;;;1.33;;
18997;SDS011;9632;51.018;4.284;2023-06-14T15:05:35;7.90;;;1.40;;
18997;SDS011;9632;51.018;4.284;2023-06-14T15:08:02;5.30;;;1.42;;
18997;SDS011;9632;51.018;4.284;2023-06-14T15:10:28;5.15;;;1.45;;
18997;SDS011;9632;51.018;4.284;2023-06-14T15:12:54;4.15;;;1.50;;
18997;SDS011;9632;51.018;4.284;2023-06-14T15:15:21;9.82;;;1.50;;
18997;SDS011;9632;51.018;4.284;2023-06-14T15:17:47;4.15;;;1.40;;
18997;SDS011;9632;51.018;4.284;2023-06-14T15:20:13;16.85;;;1.80;;
18997;SDS011;9632;51.018;4.284;2023-06-14T15:22:39;10.65;;;1.92;;
18997;SDS011;9632;51.018;4.284;2023-06-14T15:25:06;6.63;;;1.58;;
18997;SDS011;9632;51.018;4.284;2023-06-14T15:27:32;8.80;;;1.33;;
18997;SDS011;9632;51.018;4.284;2023-06-14T15:29:58;6.43;;;1.50;;
18997;SDS011;9632;51.018;4.284;2023-06-14T15:32:23;7.03;;;1.80;;
18997;SDS011;9632;51.018;4.284;2023-06-14T15:34:49;5.65;;;1.40;;
18997;SDS011;9632;51.018;4.284;2023-06-14T15:37:15;3.40;;;1.48;;
18997;SDS011;9632;51.018;4.284;2023-06-14T15:39:40;2.17;;;1.20;;
18997;SDS011;9632;51.018;4.284;2023-06-14T15:42:06;6.63;;;1.52;;
18997;SDS011;9632;51.018;4.284;2023-06-14T15:44:32;4.15;;;1.40;;